Garner, North Carolina
Current Conditions -  °F | °C
As of 9:51 AM on Thursday 23 Oct 2014 (Local Time) from KRDU Reporting Station
Clear Clear  
Wind Chill: 55°   Ceiling: Unl
Heat Index: 55°   Visibility: 10mi
Dew Point: 40°   Wind: 10mph
Humidity: 57%   Direction: 310°NW
Pressure: 30.02"   Gusts: 20mph
Location:  35.71°N, 78.62°W
Report Text: KRDU 231351Z 31009G17KT 250V360 10SM CLR 13/04 A3002 RMK AO2 SLP166 T01280044
Loading
Personal Weather Stations






























Interactive Weather Map
Tropical Storm Tracking
New forecast layout! Learn more

10-Day Weather Forecast

Advertisements
Track Severe Weather on mobile